Time;durP1;ratioP1;P1;durP2;ratioP2;P2;SDS_P1;SDS_P2;PMS_P1;PMS_P2;Temp;Humidity;BMP_temperature;BMP_pressure;BME280_temperature;BME280_humidity;BME280_pressure;Samples;Min_cycle;Max_cycle;Signal;HPM_P1;HPM_P2
2023/04/27 00:00:54;;;;;;;;;;;19.20;55.90;;;;;;6268503;28;19955;-69
2023/04/27 00:03:56;;;;;;;;;;;19.20;56.00;;;;;;6268883;28;19913;-68
2023/04/27 00:06:56;;;;;;;;;;;19.20;55.80;;;;;;6265970;28;20316;-69
2023/04/27 00:09:57;;;;;;;;;;;19.20;55.50;;;;;;6259274;28;19952;-69
2023/04/27 00:12:58;;;;;;;;;;;19.20;55.90;;;;;;6255822;28;20008;-68
2023/04/27 00:16:02;;;;;;;;;;;19.20;55.70;;;;;;6267427;28;19960;-69
2023/04/27 00:19:03;;;;;;;;;;;19.20;56.00;;;;;;6267361;28;20381;-69
2023/04/27 00:22:03;;;;;;;;;;;19.20;55.50;;;;;;6268452;28;19916;-69
2023/04/27 00:25:05;;;;;;;;;;;19.20;55.50;;;;;;6268537;28;19908;-68
2023/04/27 00:28:05;;;;;;;;;;;19.20;56.00;;;;;;6268134;28;19913;-69
2023/04/27 00:31:06;;;;;;;;;;;19.20;55.90;;;;;;6267179;28;20465;-69
2023/04/27 00:34:06;;;;;;;;;;;19.20;55.80;;;;;;6266818;28;19916;-68
2023/04/27 00:37:07;;;;;;;;;;;19.20;55.90;;;;;;6266928;28;19908;-68
2023/04/27 00:40:08;;;;;;;;;;;19.20;55.80;;;;;;6268188;28;19909;-69
2023/04/27 00:43:08;;;;;;;;;;;19.20;55.80;;;;;;6268185;28;19990;-68
2023/04/27 00:46:10;;;;;;;;;;;19.20;55.90;;;;;;6267985;28;19944;-68
2023/04/27 00:49:11;;;;;;;;;;;19.20;55.40;;;;;;6270767;28;20364;-68
2023/04/27 00:52:11;;;;;;;;;;;19.20;56.00;;;;;;6270714;28;19909;-68
2023/04/27 00:55:12;;;;;;;;;;;19.20;55.90;;;;;;6270802;28;19952;-68
2023/04/27 00:58:13;;;;;;;;;;;19.20;55.50;;;;;;6272758;28;19912;-69
2023/04/27 01:01:13;;;;;;;;;;;19.20;55.70;;;;;;6272335;28;19950;-68
2023/04/27 01:04:15;;;;;;;;;;;19.20;55.70;;;;;;6272396;28;20254;-69
2023/04/27 01:07:16;;;;;;;;;;;19.20;56.00;;;;;;6267365;28;20016;-69
2023/04/27 01:10:17;;;;;;;;;;;19.20;55.50;;;;;;6246229;28;20562;-69
2023/04/27 01:13:17;;;;;;;;;;;19.20;55.70;;;;;;6249985;28;19916;-69
2023/04/27 01:16:18;;;;;;;;;;;19.20;55.40;;;;;;6270897;28;20431;-69
2023/04/27 01:19:21;;;;;;;;;;;19.20;55.60;;;;;;6272726;28;19916;-69
2023/04/27 01:22:23;;;;;;;;;;;19.20;55.50;;;;;;6272013;28;19940;-68
2023/04/27 01:25:23;;;;;;;;;;;19.20;55.70;;;;;;6271991;28;19908;-69
2023/04/27 01:28:24;;;;;;;;;;;19.20;55.50;;;;;;6272012;28;19943;-68
2023/04/27 01:31:24;;;;;;;;;;;19.20;55.40;;;;;;6270767;28;19913;-68
2023/04/27 01:34:25;;;;;;;;;;;19.20;55.40;;;;;;6271719;28;20402;-69
2023/04/27 01:37:26;;;;;;;;;;;19.20;55.40;;;;;;6271787;28;19951;-68
2023/04/27 01:40:26;;;;;;;;;;;19.20;55.60;;;;;;6270355;28;20407;-68
2023/04/27 01:43:27;;;;;;;;;;;19.20;55.90;;;;;;6271650;28;19948;-69
2023/04/27 01:46:28;;;;;;;;;;;19.20;55.70;;;;;;6271459;28;19909;-68
2023/04/27 01:49:28;;;;;;;;;;;19.20;55.50;;;;;;6271415;28;19963;-68
2023/04/27 01:52:29;;;;;;;;;;;19.20;55.60;;;;;;6270027;28;19909;-68
2023/04/27 01:55:30;;;;;;;;;;;19.20;55.20;;;;;;6271190;28;20000;-68
2023/04/27 01:58:31;;;;;;;;;;;19.20;55.50;;;;;;6269344;28;19909;-68
2023/04/27 02:01:31;;;;;;;;;;;19.20;55.90;;;;;;6269165;28;19939;-68
2023/04/27 02:04:32;;;;;;;;;;;19.20;55.60;;;;;;6271123;28;20362;-69
2023/04/27 02:07:33;;;;;;;;;;;19.20;55.40;;;;;;6262154;28;19917;-68
2023/04/27 02:10:34;;;;;;;;;;;19.20;55.70;;;;;;6246204;28;19917;-68
2023/04/27 02:13:34;;;;;;;;;;;19.20;55.50;;;;;;6246072;28;19909;-68
2023/04/27 02:16:35;;;;;;;;;;;19.20;55.50;;;;;;6246100;28;19913;-69
2023/04/27 02:19:36;;;;;;;;;;;19.20;55.50;;;;;;6245022;28;19940;-68
2023/04/27 02:22:39;;;;;;;;;;;19.20;55.80;;;;;;6244775;28;19909;-69
2023/04/27 02:25:45;;;;;;;;;;;19.20;55.70;;;;;;6245776;28;19909;-68
2023/04/27 02:28:48;;;;;;;;;;;19.20;55.50;;;;;;6247043;28;19913;-68
2023/04/27 02:31:49;;;;;;;;;;;19.20;55.50;;;;;;6270470;28;19913;-68
2023/04/27 02:34:50;;;;;;;;;;;19.20;55.60;;;;;;6270273;28;20549;-68
2023/04/27 02:37:50;;;;;;;;;;;19.20;55.70;;;;;;6269972;28;19918;-68
2023/04/27 02:40:54;;;;;;;;;;;19.20;55.60;;;;;;6269295;28;19908;-69
2023/04/27 02:43:55;;;;;;;;;;;19.20;55.30;;;;;;6270091;28;19909;-69
2023/04/27 02:46:55;;;;;;;;;;;19.20;56.20;;;;;;6270076;28;19919;-68
2023/04/27 02:49:56;;;;;;;;;;;19.20;55.60;;;;;;6268559;28;19921;-68
2023/04/27 02:52:56;;;;;;;;;;;19.20;55.20;;;;;;6269868;28;19936;-68
2023/04/27 02:55:58;;;;;;;;;;;19.20;55.30;;;;;;6268518;28;19908;-68
2023/04/27 02:58:58;;;;;;;;;;;19.20;55.40;;;;;;6269940;28;19974;-68
2023/04/27 03:01:59;;;;;;;;;;;19.20;55.40;;;;;;6269530;28;20267;-68
2023/04/27 03:05:00;;;;;;;;;;;19.20;55.60;;;;;;6269854;28;19919;-68
2023/04/27 03:08:00;;;;;;;;;;;19.20;55.70;;;;;;6268821;28;19909;-68
2023/04/27 03:11:01;;;;;;;;;;;19.20;55.50;;;;;;6268841;28;20074;-69
2023/04/27 03:14:02;;;;;;;;;;;19.20;55.50;;;;;;6267985;28;19916;-68
2023/04/27 03:17:03;;;;;;;;;;;19.20;55.50;;;;;;6269201;28;19991;-69
2023/04/27 03:20:08;;;;;;;;;;;19.20;55.50;;;;;;6269262;28;19958;-68
2023/04/27 03:23:08;;;;;;;;;;;19.20;55.60;;;;;;6269594;28;20003;-68
2023/04/27 03:26:10;;;;;;;;;;;19.20;55.60;;;;;;6268582;28;20472;-68
2023/04/27 03:29:10;;;;;;;;;;;19.20;55.20;;;;;;6269013;28;19915;-68
2023/04/27 03:32:11;;;;;;;;;;;19.20;55.30;;;;;;6259795;28;19909;-69
2023/04/27 03:35:12;;;;;;;;;;;19.20;55.10;;;;;;6244210;28;19909;-69
2023/04/27 03:38:12;;;;;;;;;;;19.20;55.50;;;;;;6244751;28;19959;-68
2023/04/27 03:41:13;;;;;;;;;;;19.20;55.30;;;;;;6256328;28;20358;-68
2023/04/27 03:44:13;;;;;;;;;;;19.20;55.50;;;;;;6268865;28;19908;-69
2023/04/27 03:47:14;;;;;;;;;;;19.20;55.60;;;;;;6268430;28;19920;-68
2023/04/27 03:50:15;;;;;;;;;;;19.20;55.50;;;;;;6268475;28;19975;-69
2023/04/27 03:53:15;;;;;;;;;;;19.20;55.40;;;;;;6268760;28;19919;-68
2023/04/27 03:56:16;;;;;;;;;;;19.20;55.40;;;;;;6268267;28;19919;-68
2023/04/27 04:02:55;;;;;;;;;;;19.20;55.30;;;;;;6268820;28;20280;-68
2023/04/27 04:05:55;;;;;;;;;;;19.20;55.30;;;;;;6268761;28;19919;-68
2023/04/27 04:08:57;;;;;;;;;;;19.20;55.70;;;;;;6268690;28;19909;-68
2023/04/27 04:11:57;;;;;;;;;;;19.20;55.50;;;;;;6268823;28;20590;-68
2023/04/27 04:14:58;;;;;;;;;;;19.20;55.50;;;;;;6268645;28;19912;-68
2023/04/27 04:17:58;;;;;;;;;;;19.20;55.60;;;;;;6267496;28;19995;-69
2023/04/27 04:20:59;;;;;;;;;;;19.20;55.60;;;;;;6267086;28;19909;-69
2023/04/27 04:23:59;;;;;;;;;;;19.20;55.50;;;;;;6273081;28;20025;-68
2023/04/27 04:27:01;;;;;;;;;;;19.20;55.40;;;;;;6271866;28;19916;-68
2023/04/27 04:30:04;;;;;;;;;;;19.20;55.20;;;;;;6273201;28;20405;-69
2023/04/27 04:33:05;;;;;;;;;;;19.20;55.40;;;;;;6271920;28;19946;-68
2023/04/27 04:36:05;;;;;;;;;;;19.20;55.40;;;;;;6273223;28;19948;-69
2023/04/27 04:39:06;;;;;;;;;;;19.20;55.20;;;;;;6272797;28;19923;-68
2023/04/27 04:42:07;;;;;;;;;;;19.20;55.80;;;;;;6272870;28;19913;-68
2023/04/27 04:45:07;;;;;;;;;;;19.20;55.60;;;;;;6273328;28;19917;-69
2023/04/27 04:48:09;;;;;;;;;;;19.20;55.60;;;;;;6272961;28;20412;-69
2023/04/27 04:51:09;;;;;;;;;;;19.20;56.30;;;;;;6272348;28;20542;-69
2023/04/27 04:54:10;;;;;;;;;;;19.20;55.80;;;;;;6273230;28;19913;-69
2023/04/27 04:57:11;;;;;;;;;;;19.20;55.90;;;;;;6271532;28;20552;-69
2023/04/27 05:00:12;;;;;;;;;;;19.20;55.50;;;;;;6272598;28;19919;-68
2023/04/27 05:03:13;;;;;;;;;;;19.20;55.50;;;;;;6252330;28;20321;-68
2023/04/27 05:06:13;;;;;;;;;;;19.20;55.60;;;;;;6247814;28;19920;-68
2023/04/27 05:09:14;;;;;;;;;;;19.20;55.50;;;;;;6268564;28;19909;-68
2023/04/27 05:12:14;;;;;;;;;;;19.20;55.50;;;;;;6272683;28;19909;-69
2023/04/27 05:15:15;;;;;;;;;;;19.10;55.50;;;;;;6270616;28;20156;-69
2023/04/27 05:18:16;;;;;;;;;;;19.20;56.00;;;;;;6272341;28;19952;-69
2023/04/27 05:21:19;;;;;;;;;;;19.20;55.50;;;;;;6272137;28;20005;-68
2023/04/27 05:24:20;;;;;;;;;;;19.20;55.30;;;;;;6272206;28;19913;-68
2023/04/27 05:27:20;;;;;;;;;;;19.20;56.00;;;;;;6271903;28;19952;-68
2023/04/27 05:30:21;;;;;;;;;;;19.20;55.80;;;;;;6271919;28;19917;-68
2023/04/27 05:33:21;;;;;;;;;;;19.20;55.80;;;;;;6271057;28;20362;-68
2023/04/27 05:36:23;;;;;;;;;;;19.10;55.40;;;;;;6271960;28;19956;-68
2023/04/27 05:39:23;;;;;;;;;;;19.10;55.50;;;;;;6271767;28;19915;-68
2023/04/27 05:42:24;;;;;;;;;;;19.20;55.20;;;;;;6271794;28;19909;-68
2023/04/27 05:45:24;;;;;;;;;;;19.20;55.60;;;;;;6271770;28;20025;-68
2023/04/27 05:48:25;;;;;;;;;;;19.20;55.80;;;;;;6271355;28;19948;-68
2023/04/27 05:51:26;;;;;;;;;;;19.10;55.50;;;;;;6271508;28;19960;-68
2023/04/27 05:54:26;;;;;;;;;;;19.20;55.50;;;;;;6271668;28;20421;-69
2023/04/27 05:57:27;;;;;;;;;;;19.10;55.80;;;;;;6271110;28;19908;-68
2023/04/27 06:00:27;;;;;;;;;;;19.10;55.70;;;;;;6259781;28;19909;-70
2023/04/27 06:03:29;;;;;;;;;;;19.20;55.60;;;;;;6262192;28;20316;-70
2023/04/27 06:06:30;;;;;;;;;;;19.10;55.30;;;;;;6273456;28;20276;-68
2023/04/27 06:09:31;;;;;;;;;;;19.10;55.50;;;;;;6265158;28;19913;-69
2023/04/27 06:12:32;;;;;;;;;;;19.10;55.80;;;;;;6273267;28;20459;-68
2023/04/27 06:15:32;;;;;;;;;;;19.20;55.90;;;;;;6272902;28;19912;-69
2023/04/27 06:18:33;;;;;;;;;;;19.20;56.00;;;;;;6272803;28;19931;-68
2023/04/27 06:21:34;;;;;;;;;;;19.20;55.70;;;;;;6272446;28;19958;-68
2023/04/27 06:24:35;;;;;;;;;;;19.20;55.60;;;;;;6272282;28;19913;-69
2023/04/27 06:27:35;;;;;;;;;;;19.20;55.40;;;;;;6272586;28;20380;-69
2023/04/27 06:30:36;;;;;;;;;;;19.20;55.70;;;;;;6251201;28;19967;-69
2023/04/27 06:33:37;;;;;;;;;;;19.20;55.40;;;;;;6252310;28;19962;-69
2023/04/27 06:36:37;;;;;;;;;;;19.20;55.30;;;;;;6272661;28;19970;-68
2023/04/27 06:39:38;;;;;;;;;;;19.20;55.60;;;;;;6260690;28;19940;-68
2023/04/27 06:42:38;;;;;;;;;;;19.20;55.40;;;;;;6247722;28;19916;-68
2023/04/27 06:45:39;;;;;;;;;;;19.20;55.30;;;;;;6267752;28;19916;-69
2023/04/27 06:48:40;;;;;;;;;;;19.20;55.50;;;;;;6272144;28;19943;-68
2023/04/27 06:51:40;;;;;;;;;;;19.20;55.30;;;;;;6271883;28;20011;-68
2023/04/27 06:54:41;;;;;;;;;;;19.20;55.50;;;;;;6272133;28;19909;-68
2023/04/27 06:57:41;;;;;;;;;;;19.20;55.40;;;;;;6259083;28;19948;-68
2023/04/27 07:00:42;;;;;;;;;;;19.20;55.40;;;;;;6270606;28;19908;-69
2023/04/27 07:03:42;;;;;;;;;;;19.20;55.20;;;;;;6269482;28;20015;-69
2023/04/27 07:06:43;;;;;;;;;;;19.20;55.60;;;;;;6247731;28;20003;-69
2023/04/27 07:09:44;;;;;;;;;;;19.20;55.50;;;;;;6272082;28;20063;-69
2023/04/27 07:12:45;;;;;;;;;;;19.20;55.40;;;;;;6272020;28;20263;-69
2023/04/27 07:15:45;;;;;;;;;;;19.20;55.20;;;;;;6271986;28;19909;-69
2023/04/27 07:18:46;;;;;;;;;;;19.20;55.40;;;;;;6271701;28;19994;-69
2023/04/27 07:21:46;;;;;;;;;;;19.20;55.60;;;;;;6272068;28;20007;-69
2023/04/27 07:24:47;;;;;;;;;;;19.20;55.10;;;;;;6270093;28;20266;-69
2023/04/27 07:27:48;;;;;;;;;;;19.20;55.20;;;;;;6271984;28;19951;-69
2023/04/27 07:30:48;;;;;;;;;;;19.20;55.60;;;;;;6271595;28;20011;-69
2023/04/27 07:33:49;;;;;;;;;;;19.20;55.70;;;;;;6271198;28;19994;-69
2023/04/27 07:36:51;;;;;;;;;;;19.20;55.40;;;;;;6271150;28;20028;-69
2023/04/27 07:39:52;;;;;;;;;;;19.20;55.50;;;;;;6271390;28;19909;-69
2023/04/27 07:42:52;;;;;;;;;;;19.20;55.80;;;;;;6270962;28;19908;-69
2023/04/27 07:45:54;;;;;;;;;;;19.20;55.50;;;;;;6270411;28;19943;-69
2023/04/27 07:48:58;;;;;;;;;;;19.20;55.50;;;;;;6271464;28;19924;-69
2023/04/27 07:51:58;;;;;;;;;;;19.20;55.60;;;;;;6270338;28;19970;-70
2023/04/27 07:54:59;;;;;;;;;;;19.20;55.70;;;;;;6270002;28;20450;-70
2023/04/27 07:58:00;;;;;;;;;;;19.20;55.60;;;;;;6270954;28;19909;-69
2023/04/27 08:01:01;;;;;;;;;;;19.20;56.50;;;;;;6269653;28;19909;-69
2023/04/27 08:04:02;;;;;;;;;;;19.20;55.60;;;;;;6269889;28;20480;-69
2023/04/27 08:07:02;;;;;;;;;;;19.20;55.70;;;;;;6264535;28;19952;-69
2023/04/27 08:10:03;;;;;;;;;;;19.20;55.70;;;;;;6263073;28;20000;-69
2023/04/27 08:13:03;;;;;;;;;;;19.20;55.90;;;;;;6270508;28;19908;-69
2023/04/27 08:16:04;;;;;;;;;;;19.20;55.90;;;;;;6287461;28;19915;-68
2023/04/27 08:19:05;;;;;;;;;;;19.20;55.70;;;;;;6290384;28;19909;-68
2023/04/27 08:22:05;;;;;;;;;;;19.20;55.40;;;;;;6271673;28;19920;-68
2023/04/27 08:25:07;;;;;;;;;;;19.20;55.70;;;;;;6271098;28;19920;-68
2023/04/27 08:28:08;;;;;;;;;;;19.20;55.60;;;;;;6271311;28;19909;-68
2023/04/27 08:31:08;;;;;;;;;;;19.20;55.80;;;;;;6271002;28;20448;-68
2023/04/27 08:34:09;;;;;;;;;;;19.20;55.70;;;;;;6271355;28;20358;-68
2023/04/27 08:37:09;;;;;;;;;;;19.20;55.60;;;;;;6271119;28;19955;-69
2023/04/27 08:40:10;;;;;;;;;;;19.20;55.60;;;;;;6269672;28;20008;-68
2023/04/27 08:43:10;;;;;;;;;;;19.20;55.60;;;;;;6271244;28;19956;-68
2023/04/27 08:46:11;;;;;;;;;;;19.20;55.70;;;;;;6269696;28;19952;-69
2023/04/27 08:49:11;;;;;;;;;;;19.20;55.70;;;;;;6270902;28;19967;-68
2023/04/27 08:52:13;;;;;;;;;;;19.20;55.50;;;;;;6271085;28;19909;-68
2023/04/27 08:55:14;;;;;;;;;;;19.20;55.40;;;;;;6271039;28;19920;-68
2023/04/27 08:58:15;;;;;;;;;;;19.20;55.50;;;;;;6269674;28;20318;-68
2023/04/27 09:01:15;;;;;;;;;;;19.20;55.80;;;;;;6270932;28;19909;-68
2023/04/27 09:04:17;;;;;;;;;;;19.20;55.50;;;;;;6270882;28;19925;-69
2023/04/27 09:07:17;;;;;;;;;;;19.20;55.60;;;;;;6270747;28;19940;-68
2023/04/27 09:10:18;;;;;;;;;;;19.20;55.90;;;;;;6272317;28;20271;-68
2023/04/27 09:13:19;;;;;;;;;;;19.20;55.60;;;;;;6275440;28;20342;-68
2023/04/27 09:16:23;;;;;;;;;;;19.20;55.50;;;;;;6274940;28;19916;-69
2023/04/27 09:19:27;;;;;;;;;;;19.20;55.90;;;;;;6275174;28;19962;-68
2023/04/27 09:22:28;;;;;;;;;;;19.20;55.60;;;;;;6275165;28;20004;-68
2023/04/27 09:25:34;;;;;;;;;;;19.20;55.60;;;;;;6274073;28;19908;-68
2023/04/27 09:28:38;;;;;;;;;;;19.20;55.60;;;;;;6275158;28;19909;-69
2023/04/27 09:31:39;;;;;;;;;;;19.20;55.60;;;;;;6274170;28;20385;-68
2023/04/27 09:34:40;;;;;;;;;;;19.20;55.50;;;;;;6274815;28;19915;-68
2023/04/27 09:37:40;;;;;;;;;;;19.20;55.60;;;;;;6273538;28;19951;-68
2023/04/27 09:40:41;;;;;;;;;;;19.20;56.00;;;;;;6274735;28;19915;-68
2023/04/27 09:43:46;;;;;;;;;;;19.20;55.60;;;;;;6274794;28;19916;-69
2023/04/27 09:46:47;;;;;;;;;;;19.10;55.40;;;;;;6274408;28;20238;-68
2023/04/27 09:49:49;;;;;;;;;;;19.20;55.40;;;;;;6274296;28;19921;-68
2023/04/27 09:52:50;;;;;;;;;;;19.20;55.60;;;;;;6274385;28;19909;-68
2023/04/27 09:56:09;;;;;;;;;;;19.20;55.80;;;;;;6274475;28;19962;-68
2023/04/27 09:59:10;;;;;;;;;;;19.20;55.60;;;;;;6274252;28;19909;-68
2023/04/27 10:02:14;;;;;;;;;;;19.20;55.60;;;;;;6274001;28;19916;-68
2023/04/27 10:05:37;;;;;;;;;;;19.20;55.60;;;;;;6274068;28;20366;-69
2023/04/27 10:08:37;;;;;;;;;;;19.20;55.70;;;;;;6273904;28;20366;-69
2023/04/27 10:11:39;;;;;;;;;;;19.20;55.80;;;;;;6273868;28;19921;-69
2023/04/27 10:14:55;;;;;;;;;;;19.20;55.60;;;;;;6274096;28;19999;-68
2023/04/27 10:18:02;;;;;;;;;;;19.20;56.00;;;;;;6274054;28;19974;-69
2023/04/27 10:21:09;;;;;;;;;;;19.20;55.80;;;;;;6272561;28;19909;-69
2023/04/27 10:24:10;;;;;;;;;;;19.20;55.60;;;;;;6272371;28;19916;-70
2023/04/27 10:27:12;;;;;;;;;;;19.20;55.60;;;;;;6272476;28;19944;-69
2023/04/27 10:30:13;;;;;;;;;;;19.20;55.70;;;;;;6272603;28;19913;-70
2023/04/27 10:33:17;;;;;;;;;;;19.20;55.60;;;;;;6272338;28;19908;-69
2023/04/27 10:36:18;;;;;;;;;;;19.20;55.40;;;;;;6271110;28;19934;-69
2023/04/27 10:39:21;;;;;;;;;;;19.20;55.60;;;;;;6270752;28;20626;-70
2023/04/27 10:42:27;;;;;;;;;;;19.20;55.40;;;;;;6272159;28;20415;-69
2023/04/27 10:45:27;;;;;;;;;;;19.20;55.50;;;;;;6270767;28;19916;-70
2023/04/27 10:48:29;;;;;;;;;;;19.20;55.50;;;;;;6271777;28;20007;-70
2023/04/27 10:51:32;;;;;;;;;;;19.20;55.50;;;;;;6271841;28;19916;-70
2023/04/27 10:54:32;;;;;;;;;;;19.20;55.70;;;;;;6271933;28;19955;-70
2023/04/27 10:57:34;;;;;;;;;;;19.20;55.40;;;;;;6270214;28;19909;-69
2023/04/27 11:00:37;;;;;;;;;;;19.20;55.50;;;;;;6271721;28;19909;-69
2023/04/27 11:03:37;;;;;;;;;;;19.20;55.60;;;;;;6271527;28;19912;-70
2023/04/27 11:06:45;;;;;;;;;;;19.20;55.70;;;;;;6271993;28;19916;-69
2023/04/27 11:09:47;;;;;;;;;;;19.20;55.60;;;;;;6267759;28;19917;-70
2023/04/27 11:12:49;;;;;;;;;;;19.20;55.60;;;;;;6270626;28;19909;-70
2023/04/27 11:15:50;;;;;;;;;;;19.20;55.50;;;;;;6271126;28;19908;-69
2023/04/27 11:18:51;;;;;;;;;;;19.20;55.70;;;;;;6271083;28;20429;-70
2023/04/27 11:21:51;;;;;;;;;;;19.20;55.50;;;;;;6270054;28;19909;-70
2023/04/27 11:24:52;;;;;;;;;;;19.20;55.70;;;;;;6270703;28;19917;-69
2023/04/27 11:27:53;;;;;;;;;;;19.20;55.50;;;;;;6271251;28;19913;-69
2023/04/27 11:30:57;;;;;;;;;;;19.20;55.80;;;;;;6270566;28;20016;-70
2023/04/27 11:33:57;;;;;;;;;;;19.20;55.80;;;;;;6270860;28;19951;-70
2023/04/27 11:37:05;;;;;;;;;;;19.20;55.70;;;;;;6270594;28;19909;-70
2023/04/27 11:40:07;;;;;;;;;;;19.20;55.60;;;;;;6261696;28;19916;-69
2023/04/27 11:43:17;;;;;;;;;;;19.20;55.90;;;;;;6248999;28;19908;-70
2023/04/27 11:46:21;;;;;;;;;;;19.20;55.60;;;;;;6270766;28;19909;-69
2023/04/27 11:49:24;;;;;;;;;;;19.10;55.50;;;;;;6270219;28;19921;-70
2023/04/27 11:52:27;;;;;;;;;;;19.20;55.70;;;;;;6272155;28;21313;-67
2023/04/27 11:55:28;;;;;;;;;;;19.20;56.00;;;;;;6272853;28;19968;-68
2023/04/27 11:58:29;;;;;;;;;;;19.20;55.60;;;;;;6270340;28;19942;-68
2023/04/27 12:01:33;;;;;;;;;;;19.20;55.50;;;;;;6271904;28;19909;-69
2023/04/27 12:04:33;;;;;;;;;;;19.20;55.60;;;;;;6270188;28;19909;-68
2023/04/27 12:07:34;;;;;;;;;;;19.20;55.60;;;;;;6271488;28;19909;-69
2023/04/27 12:10:35;;;;;;;;;;;19.20;55.60;;;;;;6271059;28;20537;-69
2023/04/27 12:13:36;;;;;;;;;;;19.20;55.60;;;;;;6270282;28;19909;-69
2023/04/27 12:16:36;;;;;;;;;;;19.20;55.60;;;;;;6269735;28;19995;-69
2023/04/27 12:19:37;;;;;;;;;;;19.20;55.90;;;;;;6271339;28;20413;-68
2023/04/27 12:22:37;;;;;;;;;;;19.20;55.70;;;;;;6270641;28;19913;-68
2023/04/27 12:25:39;;;;;;;;;;;19.20;55.90;;;;;;6270174;28;19913;-68
2023/04/27 12:28:40;;;;;;;;;;;19.20;55.90;;;;;;6271095;28;19908;-68
2023/04/27 12:31:41;;;;;;;;;;;19.20;55.60;;;;;;6270107;28;20013;-69
2023/04/27 12:34:41;;;;;;;;;;;19.20;55.50;;;;;;6271539;28;20366;-69
2023/04/27 12:37:42;;;;;;;;;;;19.20;55.60;;;;;;6270941;28;19960;-69
2023/04/27 12:40:42;;;;;;;;;;;19.20;55.60;;;;;;6270879;28;19940;-69
2023/04/27 12:43:44;;;;;;;;;;;19.20;55.70;;;;;;6273407;28;19909;-69
2023/04/27 12:46:46;;;;;;;;;;;19.20;55.40;;;;;;6274556;28;19944;-68
2023/04/27 12:49:48;;;;;;;;;;;19.20;55.50;;;;;;6275938;28;19928;-69
2023/04/27 12:52:49;;;;;;;;;;;19.20;55.60;;;;;;6275650;28;19913;-68
2023/04/27 12:55:49;;;;;;;;;;;19.20;55.50;;;;;;6275551;28;20003;-68
2023/04/27 12:58:50;;;;;;;;;;;19.20;55.60;;;;;;6274216;28;19915;-69
2023/04/27 13:01:51;;;;;;;;;;;19.20;55.50;;;;;;6275606;28;19909;-69
2023/04/27 13:04:52;;;;;;;;;;;19.20;55.50;;;;;;6274309;28;19951;-69
2023/04/27 13:07:52;;;;;;;;;;;19.20;55.50;;;;;;6274276;28;19908;-68
2023/04/27 13:10:53;;;;;;;;;;;19.20;55.20;;;;;;6275244;28;19999;-69
2023/04/27 13:13:53;;;;;;;;;;;19.20;55.90;;;;;;6275350;28;20565;-68
2023/04/27 13:16:54;;;;;;;;;;;19.20;55.90;;;;;;6275289;28;19954;-68
2023/04/27 13:19:55;;;;;;;;;;;19.20;55.40;;;;;;6273258;28;19909;-69
2023/04/27 13:22:56;;;;;;;;;;;19.20;55.60;;;;;;6263412;28;19962;-69
2023/04/27 13:25:57;;;;;;;;;;;19.20;55.70;;;;;;6255507;28;19970;-69
2023/04/27 13:29:00;;;;;;;;;;;19.20;55.60;;;;;;6270682;28;20003;-69
2023/04/27 13:32:01;;;;;;;;;;;19.20;55.40;;;;;;6258025;28;20293;-69
2023/04/27 13:35:02;;;;;;;;;;;19.20;55.60;;;;;;6253900;28;19964;-69
2023/04/27 13:38:03;;;;;;;;;;;19.20;55.50;;;;;;6257809;28;19913;-70
2023/04/27 13:41:04;;;;;;;;;;;19.20;55.70;;;;;;6253292;28;20561;-70
2023/04/27 13:44:04;;;;;;;;;;;19.20;55.60;;;;;;6253420;28;20358;-70
2023/04/27 13:47:06;;;;;;;;;;;19.20;55.60;;;;;;6263770;28;19954;-69
2023/04/27 13:50:10;;;;;;;;;;;19.20;55.60;;;;;;6246662;28;19925;-70
2023/04/27 13:53:11;;;;;;;;;;;19.20;55.40;;;;;;6262716;28;19913;-69
2023/04/27 13:56:12;;;;;;;;;;;19.20;55.60;;;;;;6270385;28;20397;-69
2023/04/27 13:59:14;;;;;;;;;;;19.20;55.90;;;;;;6261986;28;20362;-69
2023/04/27 14:02:15;;;;;;;;;;;19.20;55.60;;;;;;6252469;28;19963;-70
2023/04/27 14:05:15;;;;;;;;;;;19.20;55.50;;;;;;6272019;28;19908;-70
2023/04/27 14:08:16;;;;;;;;;;;19.20;55.70;;;;;;6257329;28;19913;-69
2023/04/27 14:11:18;;;;;;;;;;;19.20;55.70;;;;;;6255499;28;20007;-70
2023/04/27 14:14:18;;;;;;;;;;;19.20;55.60;;;;;;6269766;28;19908;-69
2023/04/27 14:17:19;;;;;;;;;;;19.20;55.70;;;;;;6270221;28;19934;-68
2023/04/27 14:20:20;;;;;;;;;;;19.20;55.40;;;;;;6264792;28;19916;-69
2023/04/27 14:23:21;;;;;;;;;;;19.20;55.70;;;;;;6257567;28;19909;-69
2023/04/27 14:26:21;;;;;;;;;;;19.20;55.60;;;;;;6246877;28;20012;-69
2023/04/27 14:29:22;;;;;;;;;;;19.20;55.70;;;;;;6265824;28;19987;-69
2023/04/27 14:32:23;;;;;;;;;;;19.20;55.60;;;;;;6265091;28;19908;-70
2023/04/27 14:35:23;;;;;;;;;;;19.20;55.60;;;;;;6272749;28;20361;-70
2023/04/27 14:38:24;;;;;;;;;;;19.20;55.70;;;;;;6272755;28;19904;-70
2023/04/27 14:41:25;;;;;;;;;;;19.20;55.60;;;;;;6271378;28;19996;-71
2023/04/27 14:44:25;;;;;;;;;;;19.20;55.70;;;;;;6272581;28;19962;-70
2023/04/27 14:47:26;;;;;;;;;;;19.20;55.70;;;;;;6263357;28;20052;-70
2023/04/27 14:50:27;;;;;;;;;;;19.20;56.00;;;;;;6247692;28;20377;-70
2023/04/27 14:53:27;;;;;;;;;;;19.20;55.80;;;;;;6247880;28;19909;-70
2023/04/27 14:56:28;;;;;;;;;;;19.20;55.90;;;;;;6259891;28;20000;-70
2023/04/27 14:59:28;;;;;;;;;;;19.10;55.70;;;;;;6270440;28;19955;-69
2023/04/27 15:02:29;;;;;;;;;;;19.20;55.70;;;;;;6270494;28;19913;-70
2023/04/27 15:05:30;;;;;;;;;;;19.20;55.60;;;;;;6271644;28;19913;-70
2023/04/27 15:08:31;;;;;;;;;;;19.20;55.60;;;;;;6261574;28;20441;-70
2023/04/27 15:11:31;;;;;;;;;;;19.20;55.70;;;;;;6247421;28;19913;-70
2023/04/27 15:14:32;;;;;;;;;;;19.20;55.60;;;;;;6247477;28;19909;-70
2023/04/27 15:17:34;;;;;;;;;;;19.20;55.50;;;;;;6246425;28;19917;-70
2023/04/27 15:20:34;;;;;;;;;;;19.20;55.70;;;;;;6247170;28;19916;-70
2023/04/27 15:23:36;;;;;;;;;;;19.20;55.90;;;;;;6246538;28;19909;-70
2023/04/27 15:26:36;;;;;;;;;;;19.20;55.70;;;;;;6245793;28;20052;-70
2023/04/27 15:29:37;;;;;;;;;;;19.20;55.80;;;;;;6246779;28;19917;-69
2023/04/27 15:32:37;;;;;;;;;;;19.20;55.50;;;;;;6247166;28;19913;-70
2023/04/27 15:35:39;;;;;;;;;;;19.20;55.70;;;;;;6247004;28;19909;-70
2023/04/27 15:38:39;;;;;;;;;;;19.20;55.80;;;;;;6246907;28;19939;-70
2023/04/27 15:41:40;;;;;;;;;;;19.20;55.60;;;;;;6245469;28;19966;-69
2023/04/27 15:44:41;;;;;;;;;;;19.20;55.70;;;;;;6246705;28;19917;-70
2023/04/27 15:47:41;;;;;;;;;;;19.20;55.70;;;;;;6245242;28;19917;-70
2023/04/27 15:50:43;;;;;;;;;;;19.20;55.70;;;;;;6245734;28;19951;-70
2023/04/27 15:53:44;;;;;;;;;;;19.20;55.70;;;;;;6246701;28;19951;-70
2023/04/27 15:56:44;;;;;;;;;;;19.10;55.50;;;;;;6267638;28;20259;-70
2023/04/27 15:59:45;;;;;;;;;;;19.20;55.50;;;;;;6271160;28;19915;-69
2023/04/27 16:02:45;;;;;;;;;;;19.20;55.60;;;;;;6271460;28;19909;-70
2023/04/27 16:05:49;;;;;;;;;;;19.20;55.50;;;;;;6270691;28;19917;-70
2023/04/27 16:08:50;;;;;;;;;;;19.20;55.70;;;;;;6270503;28;19916;-70
2023/04/27 16:11:50;;;;;;;;;;;19.20;55.60;;;;;;6270726;28;19913;-69
2023/04/27 16:14:55;;;;;;;;;;;19.20;55.50;;;;;;6260287;28;19967;-69
2023/04/27 16:17:56;;;;;;;;;;;19.20;55.40;;;;;;6241404;28;19948;-69
2023/04/27 16:20:58;;;;;;;;;;;19.20;55.60;;;;;;6261762;28;19919;-69
2023/04/27 16:23:59;;;;;;;;;;;19.20;55.70;;;;;;6293403;28;19956;-71
2023/04/27 16:27:00;;;;;;;;;;;19.20;55.60;;;;;;6276520;28;20297;-69
2023/04/27 16:30:00;;;;;;;;;;;19.20;55.80;;;;;;6248766;28;19912;-69
2023/04/27 16:33:01;;;;;;;;;;;19.20;55.70;;;;;;6266390;28;19919;-69
2023/04/27 16:36:02;;;;;;;;;;;19.10;55.40;;;;;;6271083;28;19909;-69
2023/04/27 16:39:03;;;;;;;;;;;19.20;55.60;;;;;;6270994;28;19913;-69
2023/04/27 16:42:04;;;;;;;;;;;19.10;55.50;;;;;;6263088;28;19916;-69
2023/04/27 16:45:05;;;;;;;;;;;19.10;55.50;;;;;;6266520;28;20373;-70
2023/04/27 16:48:06;;;;;;;;;;;19.20;55.60;;;;;;6252800;28;19921;-69
2023/04/27 16:51:09;;;;;;;;;;;19.20;55.60;;;;;;6245906;28;19921;-69
2023/04/27 16:54:09;;;;;;;;;;;19.20;55.70;;;;;;6269996;28;19909;-69
2023/04/27 16:57:12;;;;;;;;;;;19.20;55.60;;;;;;6270569;28;19909;-69
2023/04/27 17:00:13;;;;;;;;;;;19.20;55.70;;;;;;6271121;28;20362;-69
2023/04/27 17:03:13;;;;;;;;;;;19.20;55.70;;;;;;6263804;28;19913;-68
2023/04/27 17:06:14;;;;;;;;;;;19.20;55.80;;;;;;6266679;28;19971;-69
2023/04/27 17:09:15;;;;;;;;;;;19.10;55.60;;;;;;6271000;28;19909;-69
2023/04/27 17:12:16;;;;;;;;;;;19.10;56.20;;;;;;6270908;28;19920;-69
2023/04/27 17:15:17;;;;;;;;;;;19.20;55.60;;;;;;6269824;28;20106;-68
2023/04/27 17:18:18;;;;;;;;;;;19.20;55.60;;;;;;6270466;28;19909;-68
2023/04/27 17:21:21;;;;;;;;;;;19.20;55.70;;;;;;6253114;28;19996;-69
2023/04/27 17:24:23;;;;;;;;;;;19.10;55.60;;;;;;6279567;28;19909;-68
2023/04/27 17:27:24;;;;;;;;;;;19.20;55.70;;;;;;6285427;28;19913;-70
2023/04/27 17:30:25;;;;;;;;;;;19.10;55.60;;;;;;6269787;28;19970;-69
2023/04/27 17:33:25;;;;;;;;;;;19.10;55.70;;;;;;6269554;28;19959;-69
2023/04/27 17:36:26;;;;;;;;;;;19.10;55.70;;;;;;6270260;28;19909;-69